Time;durP1;ratioP1;P1;durP2;ratioP2;P2;SDS_P1;SDS_P2;PMS_P1;PMS_P2;Temp;Humidity;BMP_temperature;BMP_pressure;BME280_temperature;BME280_humidity;BME280_pressure;Samples;Min_cycle;Max_cycle;Signal;HPM_P1;HPM_P2
2022/01/11 00:01:43;;;;;;;28.95;15.32;;;;;;;;;;4961302;28;20034;-78
2022/01/11 00:04:15;;;;;;;27.70;14.77;;;;;;;;;;4969406;28;20383;-77
2022/01/11 00:06:47;;;;;;;31.65;14.98;;;;;;;;;;4965806;28;20110;-78
2022/01/11 00:09:21;;;;;;;30.83;15.45;;;;;;;;;;4968739;28;20035;-76
2022/01/11 00:11:47;;;;;;;32.10;15.50;;;;;;;;;;4965899;28;20034;-78
2022/01/11 00:14:12;;;;;;;33.95;15.27;;;;;;;;;;4966242;28;20883;-76
2022/01/11 00:16:37;;;;;;;34.17;16.48;;;;;;;;;;4969366;28;20045;-77
2022/01/11 00:19:06;;;;;;;31.33;16.10;;;;;;;;;;4967874;28;20038;-79
2022/01/11 00:21:31;;;;;;;36.60;15.90;;;;;;;;;;4962193;28;20122;-78
2022/01/11 00:26:40;;;;;;;35.38;17.25;;;;;;;;;;4965843;28;20394;-78
2022/01/11 00:29:05;;;;;;;33.45;17.13;;;;;;;;;;4968064;28;20043;-77
2022/01/11 00:31:30;;;;;;;36.80;16.63;;;;;;;;;;4968924;28;20066;-77
2022/01/11 00:33:56;;;;;;;32.85;16.15;;;;;;;;;;4968190;28;20038;-78
2022/01/11 00:36:21;;;;;;;32.58;16.63;;;;;;;;;;4965454;28;20034;-78
2022/01/11 00:38:46;;;;;;;32.63;16.40;;;;;;;;;;4968944;28;20089;-78
2022/01/11 00:41:12;;;;;;;35.30;17.02;;;;;;;;;;4968228;28;20076;-79
2022/01/11 00:43:38;;;;;;;30.85;15.95;;;;;;;;;;4966811;28;20078;-78
2022/01/11 00:46:03;;;;;;;34.55;16.77;;;;;;;;;;4969254;28;20073;-79
2022/01/11 00:48:29;;;;;;;30.83;16.55;;;;;;;;;;4967274;28;20034;-78
2022/01/11 00:50:54;;;;;;;36.70;17.35;;;;;;;;;;4967709;28;20019;-78
2022/01/11 00:53:20;;;;;;;34.25;16.90;;;;;;;;;;4964415;28;20120;-78
2022/01/11 00:55:47;;;;;;;31.63;15.95;;;;;;;;;;4969013;28;20600;-78
2022/01/11 00:58:12;;;;;;;33.72;16.05;;;;;;;;;;4963389;28;20031;-78
2022/01/11 01:00:41;;;;;;;43.00;18.40;;;;;;;;;;4946373;28;20498;-78
2022/01/11 01:03:06;;;;;;;36.00;16.67;;;;;;;;;;4969478;28;20030;-77
2022/01/11 01:05:31;;;;;;;35.55;17.85;;;;;;;;;;4965077;28;20042;-78
2022/01/11 01:07:57;;;;;;;34.33;17.00;;;;;;;;;;4968475;28;20035;-78
2022/01/11 01:10:26;;;;;;;39.67;17.45;;;;;;;;;;4965868;28;20098;-77
2022/01/11 01:12:58;;;;;;;33.08;17.73;;;;;;;;;;4964337;28;20023;-78
2022/01/11 01:15:24;;;;;;;33.78;16.80;;;;;;;;;;4962205;28;20069;-78
2022/01/11 01:17:50;;;;;;;35.25;17.75;;;;;;;;;;4968531;28;20466;-76
2022/01/11 01:20:15;;;;;;;34.85;16.77;;;;;;;;;;4967727;28;20014;-79
2022/01/11 01:22:40;;;;;;;35.40;17.55;;;;;;;;;;4970296;28;20552;-78
2022/01/11 01:25:06;;;;;;;40.15;18.38;;;;;;;;;;4965796;28;20058;-78
2022/01/11 01:27:31;;;;;;;39.13;18.05;;;;;;;;;;4966665;28;20062;-78
2022/01/11 01:29:56;;;;;;;37.10;17.85;;;;;;;;;;4969883;28;20797;-78
2022/01/11 01:32:21;;;;;;;37.53;18.77;;;;;;;;;;4971539;28;20041;-77
2022/01/11 01:34:49;;;;;;;33.42;16.50;;;;;;;;;;4966842;28;20142;-77
2022/01/11 01:37:14;;;;;;;35.78;17.38;;;;;;;;;;4971149;28;20466;-77
2022/01/11 01:39:39;;;;;;;31.90;16.30;;;;;;;;;;4962429;28;20078;-78
2022/01/11 01:42:08;;;;;;;33.95;16.10;;;;;;;;;;4969343;28;20027;-78
2022/01/11 01:44:34;;;;;;;31.33;15.20;;;;;;;;;;4971560;28;20019;-78
2022/01/11 01:46:59;;;;;;;32.72;16.30;;;;;;;;;;4971909;28;20054;-78
2022/01/11 01:49:25;;;;;;;33.13;16.65;;;;;;;;;;4976666;28;20042;-77
2022/01/11 01:51:50;;;;;;;33.28;16.55;;;;;;;;;;4978037;28;20029;-76
2022/01/11 01:54:16;;;;;;;38.33;17.80;;;;;;;;;;4976076;28;20027;-80
2022/01/11 01:56:41;;;;;;;30.05;14.95;;;;;;;;;;4976957;28;20038;-78
2022/01/11 01:59:07;;;;;;;34.22;17.17;;;;;;;;;;4954905;28;20136;-78
2022/01/11 02:01:42;;;;;;;32.03;15.00;;;;;;;;;;4968154;28;20096;-77
2022/01/11 02:04:07;;;;;;;31.00;15.40;;;;;;;;;;4968255;28;20037;-80
2022/01/11 02:06:33;;;;;;;31.83;15.38;;;;;;;;;;4973211;28;20026;-77
2022/01/11 02:08:58;;;;;;;27.95;15.82;;;;;;;;;;4973211;28;20039;-77
2022/01/11 02:11:24;;;;;;;28.40;15.50;;;;;;;;;;4973188;28;20027;-77
2022/01/11 02:13:49;;;;;;;29.77;14.88;;;;;;;;;;4969975;28;20019;-78
2022/01/11 02:16:15;;;;;;;30.58;15.68;;;;;;;;;;4972729;28;20050;-77
2022/01/11 02:18:41;;;;;;;34.08;16.42;;;;;;;;;;4970663;28;20083;-78
2022/01/11 02:21:06;;;;;;;34.50;16.42;;;;;;;;;;4967604;28;21455;-78
2022/01/11 02:23:32;;;;;;;29.35;15.43;;;;;;;;;;4971682;28;20037;-76
2022/01/11 02:25:57;;;;;;;33.22;15.40;;;;;;;;;;4964168;28;20046;-78
2022/01/11 02:28:23;;;;;;;31.40;15.27;;;;;;;;;;4969921;28;20113;-77
2022/01/11 02:30:49;;;;;;;29.05;15.70;;;;;;;;;;4971444;28;20058;-77
2022/01/11 02:33:30;;;;;;;34.20;16.13;;;;;;;;;;4963570;28;20525;-79
2022/01/11 02:35:55;;;;;;;33.17;15.90;;;;;;;;;;4971100;28;20347;-77
2022/01/11 02:38:20;;;;;;;32.08;14.90;;;;;;;;;;4968813;28;20106;-77
2022/01/11 02:40:45;;;;;;;28.92;15.27;;;;;;;;;;4952997;28;20031;-77
2022/01/11 02:43:11;;;;;;;30.73;15.00;;;;;;;;;;4967324;28;20015;-77
2022/01/11 02:45:36;;;;;;;29.52;16.55;;;;;;;;;;4970565;28;20109;-77
2022/01/11 02:48:01;;;;;;;29.92;15.50;;;;;;;;;;4971412;28;20027;-78
2022/01/11 02:50:26;;;;;;;30.55;15.23;;;;;;;;;;4965473;28;20031;-77
2022/01/11 02:52:52;;;;;;;30.25;14.75;;;;;;;;;;4970675;28;20055;-77
2022/01/11 02:55:17;;;;;;;31.95;14.35;;;;;;;;;;4966126;28;20534;-77
2022/01/11 02:57:42;;;;;;;33.65;15.25;;;;;;;;;;4969508;28;20023;-78
2022/01/11 03:00:09;;;;;;;29.98;14.88;;;;;;;;;;4966873;28;20027;-77
2022/01/11 03:02:35;;;;;;;30.02;14.88;;;;;;;;;;4969134;28;20106;-78
2022/01/11 03:05:00;;;;;;;33.00;14.57;;;;;;;;;;4971713;28;20185;-77
2022/01/11 03:07:25;;;;;;;33.10;16.48;;;;;;;;;;4970078;28;20034;-78
2022/01/11 03:12:43;;;;;;;33.83;15.10;;;;;;;;;;4942441;28;20561;-76
2022/01/11 03:15:08;;;;;;;30.65;14.50;;;;;;;;;;4969449;28;20118;-77
2022/01/11 03:17:33;;;;;;;30.67;15.85;;;;;;;;;;4971075;28;20263;-77
2022/01/11 03:19:59;;;;;;;28.00;14.25;;;;;;;;;;4970414;28;20453;-78
2022/01/11 03:22:24;;;;;;;33.42;15.50;;;;;;;;;;4963293;28;20041;-77
2022/01/11 03:24:49;;;;;;;28.80;14.80;;;;;;;;;;4965243;28;20034;-77
2022/01/11 03:27:14;;;;;;;28.20;14.82;;;;;;;;;;4969775;28;20497;-79
2022/01/11 03:29:40;;;;;;;29.27;14.98;;;;;;;;;;4969429;28;20122;-78
2022/01/11 03:32:06;;;;;;;30.30;15.40;;;;;;;;;;4963526;28;20020;-77
2022/01/11 03:34:31;;;;;;;28.65;14.63;;;;;;;;;;4969153;28;20026;-77
2022/01/11 03:36:57;;;;;;;31.40;15.07;;;;;;;;;;4968924;28;20035;-78
2022/01/11 03:39:23;;;;;;;29.60;14.23;;;;;;;;;;4968399;28;20074;-77
2022/01/11 03:41:48;;;;;;;30.42;15.75;;;;;;;;;;4970059;28;20042;-78
2022/01/11 03:44:14;;;;;;;29.10;14.00;;;;;;;;;;4967489;28;20073;-79
2022/01/11 03:46:39;;;;;;;29.02;14.38;;;;;;;;;;4965206;28;20038;-77
2022/01/11 03:49:04;;;;;;;28.50;14.50;;;;;;;;;;4964550;28;20050;-77
2022/01/11 03:51:29;;;;;;;28.67;14.82;;;;;;;;;;4972906;28;20074;-76
2022/01/11 03:54:08;;;;;;;29.77;15.43;;;;;;;;;;4969038;28;20054;-78
2022/01/11 03:56:33;;;;;;;28.08;14.20;;;;;;;;;;4964120;28;20134;-77
2022/01/11 03:59:01;;;;;;;26.80;13.90;;;;;;;;;;4966942;28;20441;-75
2022/01/11 04:01:26;;;;;;;28.15;13.98;;;;;;;;;;4959957;28;20027;-77
2022/01/11 04:03:51;;;;;;;26.90;14.00;;;;;;;;;;4963975;28;20106;-77
2022/01/11 04:06:17;;;;;;;27.63;14.57;;;;;;;;;;4969445;28;20687;-78
2022/01/11 04:08:45;;;;;;;30.17;14.70;;;;;;;;;;4965499;28;20065;-78
2022/01/11 04:11:11;;;;;;;29.67;14.00;;;;;;;;;;4948423;28;20038;-77
2022/01/11 04:13:37;;;;;;;28.63;13.77;;;;;;;;;;4958656;28;20023;-78
2022/01/11 04:16:02;;;;;;;28.80;14.68;;;;;;;;;;4968186;28;20081;-77
2022/01/11 04:18:27;;;;;;;29.23;14.60;;;;;;;;;;4969766;28;20157;-77
2022/01/11 04:20:53;;;;;;;28.08;13.98;;;;;;;;;;4972706;28;20394;-76
2022/01/11 04:23:18;;;;;;;26.70;13.82;;;;;;;;;;4948922;28;20057;-77
2022/01/11 04:25:43;;;;;;;25.08;13.10;;;;;;;;;;4968985;28;20022;-76
2022/01/11 04:28:08;;;;;;;30.25;14.88;;;;;;;;;;4968134;28;20027;-77
2022/01/11 04:30:34;;;;;;;29.42;14.32;;;;;;;;;;4967710;28;20046;-77
2022/01/11 04:33:00;;;;;;;31.10;15.70;;;;;;;;;;4968691;28;20034;-77
2022/01/11 04:35:25;;;;;;;28.90;15.23;;;;;;;;;;4968295;28;20466;-77
2022/01/11 04:37:50;;;;;;;31.42;15.30;;;;;;;;;;4969034;28;20027;-78
2022/01/11 04:40:16;;;;;;;26.08;13.75;;;;;;;;;;4969090;28;20031;-78
2022/01/11 04:42:42;;;;;;;32.10;14.82;;;;;;;;;;4966202;28;20023;-79
2022/01/11 04:45:10;;;;;;;28.75;14.30;;;;;;;;;;4969192;28;20035;-79
2022/01/11 04:47:35;;;;;;;28.77;14.55;;;;;;;;;;4967939;28;20027;-77
2022/01/11 04:50:00;;;;;;;28.60;14.57;;;;;;;;;;4967261;28;20046;-77
2022/01/11 04:52:25;;;;;;;26.98;14.88;;;;;;;;;;4957866;28;20386;-78
2022/01/11 04:54:50;;;;;;;31.52;14.88;;;;;;;;;;4967593;28;20035;-78
2022/01/11 04:57:16;;;;;;;29.38;14.60;;;;;;;;;;4967039;28;20019;-78
2022/01/11 04:59:41;;;;;;;28.00;14.23;;;;;;;;;;4970184;28;20485;-78
2022/01/11 05:02:06;;;;;;;29.40;14.52;;;;;;;;;;4971134;28;20377;-78
2022/01/11 05:04:31;;;;;;;25.77;13.40;;;;;;;;;;4968892;28;20022;-78
2022/01/11 05:06:57;;;;;;;31.77;14.40;;;;;;;;;;4973062;28;20026;-78
2022/01/11 05:09:22;;;;;;;29.65;15.27;;;;;;;;;;4967541;28;20046;-77
2022/01/11 05:11:47;;;;;;;27.40;13.88;;;;;;;;;;4972521;28;20033;-77
2022/01/11 05:14:12;;;;;;;28.20;15.00;;;;;;;;;;4970991;28;20063;-77
2022/01/11 05:16:37;;;;;;;27.05;13.60;;;;;;;;;;4972890;28;20034;-78
2022/01/11 05:19:02;;;;;;;30.25;14.82;;;;;;;;;;4969413;28;20031;-78
2022/01/11 05:21:28;;;;;;;28.65;13.32;;;;;;;;;;4964564;28;20489;-78
2022/01/11 05:23:53;;;;;;;30.67;14.13;;;;;;;;;;4973041;28;20038;-78
2022/01/11 05:26:18;;;;;;;26.27;14.25;;;;;;;;;;4967395;28;20035;-78
2022/01/11 05:28:43;;;;;;;29.77;14.77;;;;;;;;;;4968902;28;20050;-78
2022/01/11 05:31:08;;;;;;;28.60;13.52;;;;;;;;;;4969789;28;20054;-77
2022/01/11 05:33:34;;;;;;;32.45;16.35;;;;;;;;;;4967091;28;20039;-78
2022/01/11 05:35:59;;;;;;;32.75;15.55;;;;;;;;;;4966276;28;20210;-77
2022/01/11 05:38:24;;;;;;;31.20;15.25;;;;;;;;;;4948941;29;20406;-78
2022/01/11 05:40:50;;;;;;;31.60;15.45;;;;;;;;;;4973546;28;20037;-77
2022/01/11 05:43:15;;;;;;;30.92;14.85;;;;;;;;;;4973597;28;20034;-79
2022/01/11 05:45:41;;;;;;;30.27;15.55;;;;;;;;;;4972101;28;20486;-79
2022/01/11 05:48:06;;;;;;;30.95;14.88;;;;;;;;;;4970965;28;20089;-77
2022/01/11 05:50:31;;;;;;;31.02;15.20;;;;;;;;;;4970923;28;20022;-77
2022/01/11 05:52:56;;;;;;;28.17;14.27;;;;;;;;;;4970425;28;20022;-78
2022/01/11 05:55:22;;;;;;;28.38;14.90;;;;;;;;;;4971041;28;20030;-77
2022/01/11 05:57:47;;;;;;;33.53;16.05;;;;;;;;;;4972150;28;20034;-78
2022/01/11 06:00:15;;;;;;;31.85;15.48;;;;;;;;;;4971438;28;20035;-77
2022/01/11 06:02:42;;;;;;;32.42;14.70;;;;;;;;;;4968322;28;20462;-77
2022/01/11 06:05:08;;;;;;;30.25;15.05;;;;;;;;;;4971003;28;20026;-77
2022/01/11 06:07:33;;;;;;;28.75;15.30;;;;;;;;;;4970025;28;20031;-77
2022/01/11 06:09:58;;;;;;;29.20;15.27;;;;;;;;;;4976068;28;20035;-76
2022/01/11 06:12:23;;;;;;;28.75;15.55;;;;;;;;;;4972474;28;20430;-76
2022/01/11 06:14:48;;;;;;;33.78;16.92;;;;;;;;;;4971175;28;20154;-77
2022/01/11 06:17:14;;;;;;;35.35;17.08;;;;;;;;;;4970410;28;20030;-76
2022/01/11 06:19:39;;;;;;;30.02;15.13;;;;;;;;;;4969957;28;20035;-77
2022/01/11 06:22:04;;;;;;;33.80;17.05;;;;;;;;;;4971005;28;20030;-78
2022/01/11 06:24:29;;;;;;;32.88;15.95;;;;;;;;;;4968395;28;20033;-78
2022/01/11 06:26:54;;;;;;;30.85;16.50;;;;;;;;;;4967928;28;20027;-72
2022/01/11 06:29:19;;;;;;;35.38;15.90;;;;;;;;;;4965397;28;20039;-68
2022/01/11 06:31:45;;;;;;;34.35;16.85;;;;;;;;;;4962655;28;20089;-64
2022/01/11 06:34:10;;;;;;;35.88;16.85;;;;;;;;;;4967805;28;20027;-65
2022/01/11 06:36:36;;;;;;;35.97;17.00;;;;;;;;;;4969462;28;20106;-65
2022/01/11 06:39:02;;;;;;;34.58;16.85;;;;;;;;;;4967128;28;20098;-64
2022/01/11 06:41:27;;;;;;;35.13;17.05;;;;;;;;;;4970233;28;20027;-64
2022/01/11 06:43:54;;;;;;;30.90;15.38;;;;;;;;;;4966219;28;20125;-64
2022/01/11 06:46:21;;;;;;;31.27;15.88;;;;;;;;;;4970218;28;20073;-63
2022/01/11 06:48:46;;;;;;;31.52;16.08;;;;;;;;;;4968838;28;20108;-65
2022/01/11 06:51:12;;;;;;;29.55;15.70;;;;;;;;;;4970278;28;20034;-65
2022/01/11 06:53:37;;;;;;;31.92;15.80;;;;;;;;;;4970096;28;20725;-66
2022/01/11 06:56:02;;;;;;;34.97;17.02;;;;;;;;;;4968536;28;20043;-66
2022/01/11 06:58:27;;;;;;;33.10;16.67;;;;;;;;;;4948115;28;20089;-66
2022/01/11 07:00:52;;;;;;;29.63;15.57;;;;;;;;;;4970628;28;20058;-66
2022/01/11 07:03:18;;;;;;;32.45;17.00;;;;;;;;;;4966951;28;20030;-65
2022/01/11 07:05:44;;;;;;;32.85;16.25;;;;;;;;;;4968847;28;20069;-65
2022/01/11 07:08:10;;;;;;;26.52;14.75;;;;;;;;;;4969158;28;20035;-66
2022/01/11 07:10:35;;;;;;;30.30;15.88;;;;;;;;;;4975555;28;20073;-66
2022/01/11 07:13:02;;;;;;;32.97;17.13;;;;;;;;;;4969737;28;20019;-66
2022/01/11 07:15:27;;;;;;;34.53;17.27;;;;;;;;;;4955246;28;20061;-67
2022/01/11 07:17:52;;;;;;;31.25;16.33;;;;;;;;;;4970867;28;20026;-66
2022/01/11 07:20:18;;;;;;;29.25;14.90;;;;;;;;;;4973423;28;20105;-68
2022/01/11 07:22:44;;;;;;;33.05;16.58;;;;;;;;;;4973360;28;20162;-66
2022/01/11 07:25:09;;;;;;;31.63;16.25;;;;;;;;;;4968035;28;20659;-66
2022/01/11 07:27:35;;;;;;;31.27;15.95;;;;;;;;;;4970614;28;20018;-66
2022/01/11 07:30:04;;;;;;;31.20;15.20;;;;;;;;;;4967467;28;20053;-67
2022/01/11 07:32:31;;;;;;;33.10;18.08;;;;;;;;;;4959522;28;20023;-66
2022/01/11 07:34:56;;;;;;;31.58;16.15;;;;;;;;;;4969915;28;20038;-66
2022/01/11 07:37:21;;;;;;;32.00;17.20;;;;;;;;;;4963525;28;20027;-66
2022/01/11 07:39:47;;;;;;;32.75;16.70;;;;;;;;;;4961878;28;20027;-66
2022/01/11 07:42:12;;;;;;;37.17;18.10;;;;;;;;;;4964602;28;20038;-66
2022/01/11 07:44:37;;;;;;;30.67;15.80;;;;;;;;;;4966679;28;20584;-66
2022/01/11 07:47:04;;;;;;;35.88;17.13;;;;;;;;;;4964035;28;20038;-67
2022/01/11 07:49:29;;;;;;;32.25;16.55;;;;;;;;;;4964838;28;20035;-68
2022/01/11 07:51:54;;;;;;;32.03;16.88;;;;;;;;;;4970340;28;20037;-66
2022/01/11 07:54:20;;;;;;;31.75;16.17;;;;;;;;;;4966992;28;20118;-66
2022/01/11 07:56:45;;;;;;;32.85;16.17;;;;;;;;;;4967419;28;20027;-67
2022/01/11 07:59:11;;;;;;;30.98;16.38;;;;;;;;;;4964841;28;20041;-66
2022/01/11 08:01:36;;;;;;;25.48;14.43;;;;;;;;;;4964725;28;20034;-67
2022/01/11 08:04:02;;;;;;;34.97;17.40;;;;;;;;;;4966287;28;20094;-66
2022/01/11 08:06:27;;;;;;;31.77;16.48;;;;;;;;;;4963002;28;20037;-67
2022/01/11 08:08:52;;;;;;;32.35;16.75;;;;;;;;;;4969488;28;20435;-66
2022/01/11 08:11:17;;;;;;;32.80;17.00;;;;;;;;;;4959303;28;20038;-67
2022/01/11 08:13:43;;;;;;;31.67;16.02;;;;;;;;;;4963113;28;20061;-66
2022/01/11 08:16:08;;;;;;;32.58;17.48;;;;;;;;;;4964382;28;20070;-66
2022/01/11 08:18:33;;;;;;;35.60;17.77;;;;;;;;;;4967498;28;20035;-67
2022/01/11 08:20:58;;;;;;;36.40;16.83;;;;;;;;;;4968120;28;20061;-66
2022/01/11 08:23:23;;;;;;;36.05;17.85;;;;;;;;;;4970401;28;20122;-66
2022/01/11 08:25:49;;;;;;;34.88;16.55;;;;;;;;;;4971542;28;20058;-67
2022/01/11 08:28:14;;;;;;;33.80;17.65;;;;;;;;;;4969198;28;20081;-66
2022/01/11 08:30:39;;;;;;;36.67;18.25;;;;;;;;;;4969855;28;20053;-67
2022/01/11 08:33:04;;;;;;;33.25;16.63;;;;;;;;;;4969409;28;20457;-67
2022/01/11 08:35:31;;;;;;;34.65;17.45;;;;;;;;;;4969860;28;20023;-66
2022/01/11 08:37:57;;;;;;;32.15;16.98;;;;;;;;;;4968984;28;20034;-67
2022/01/11 08:40:22;;;;;;;31.02;16.35;;;;;;;;;;4969098;28;20034;-66
2022/01/11 08:42:47;;;;;;;35.03;17.75;;;;;;;;;;4969338;28;20868;-67
2022/01/11 08:45:13;;;;;;;30.00;17.02;;;;;;;;;;4969004;28;20118;-67
2022/01/11 08:47:38;;;;;;;30.55;15.57;;;;;;;;;;4968828;28;20074;-67
2022/01/11 08:50:05;;;;;;;29.27;15.70;;;;;;;;;;4966825;28;20073;-67
2022/01/11 08:52:30;;;;;;;29.92;15.90;;;;;;;;;;4968359;28;20033;-67
2022/01/11 08:54:55;;;;;;;27.75;14.80;;;;;;;;;;4968651;28;20030;-67
2022/01/11 08:57:21;;;;;;;31.95;16.45;;;;;;;;;;4965851;28;20031;-67
2022/01/11 08:59:46;;;;;;;29.23;15.00;;;;;;;;;;4969074;28;20069;-66
2022/01/11 09:02:12;;;;;;;32.70;15.98;;;;;;;;;;4967316;28;20027;-67
2022/01/11 09:04:38;;;;;;;35.03;16.40;;;;;;;;;;4963895;28;20422;-67
2022/01/11 09:07:03;;;;;;;34.20;16.75;;;;;;;;;;4969958;28;20085;-67
2022/01/11 09:09:31;;;;;;;34.97;15.10;;;;;;;;;;4966273;28;20406;-67
2022/01/11 09:11:57;;;;;;;30.33;14.82;;;;;;;;;;4967087;28;20105;-66
2022/01/11 09:14:23;;;;;;;32.53;15.38;;;;;;;;;;4965926;28;20023;-66
2022/01/11 09:16:48;;;;;;;27.45;14.18;;;;;;;;;;4970051;28;20479;-67
2022/01/11 09:19:14;;;;;;;27.20;14.18;;;;;;;;;;4967097;28;20042;-66
2022/01/11 09:21:39;;;;;;;26.98;13.77;;;;;;;;;;4968805;28;20038;-65
2022/01/11 09:24:05;;;;;;;30.50;15.35;;;;;;;;;;4963787;28;20051;-66
2022/01/11 09:26:30;;;;;;;32.28;15.52;;;;;;;;;;4968084;28;20253;-66
2022/01/11 09:28:55;;;;;;;29.80;16.05;;;;;;;;;;4968191;28;20126;-67
2022/01/11 09:31:21;;;;;;;30.63;15.55;;;;;;;;;;4965649;28;20031;-67
2022/01/11 09:33:46;;;;;;;37.85;17.52;;;;;;;;;;4968751;28;20386;-67
2022/01/11 09:36:11;;;;;;;32.30;16.45;;;;;;;;;;4967482;28;20370;-67
2022/01/11 09:38:37;;;;;;;30.38;15.95;;;;;;;;;;4972596;28;20030;-66
2022/01/11 09:41:02;;;;;;;31.75;16.15;;;;;;;;;;4967862;28;20605;-67
2022/01/11 09:43:28;;;;;;;37.38;17.33;;;;;;;;;;4967426;28;20035;-66
2022/01/11 09:45:53;;;;;;;37.85;18.23;;;;;;;;;;4971809;28;20039;-67
2022/01/11 09:48:24;;;;;;;31.45;16.33;;;;;;;;;;4974788;28;20067;-66
2022/01/11 09:50:50;;;;;;;35.97;17.42;;;;;;;;;;4969353;28;20057;-68
2022/01/11 09:53:15;;;;;;;34.47;16.52;;;;;;;;;;4965468;28;20038;-69
2022/01/11 09:55:41;;;;;;;31.02;15.95;;;;;;;;;;4970598;28;20074;-66
2022/01/11 09:58:07;;;;;;;33.53;16.75;;;;;;;;;;4966951;28;20141;-66
2022/01/11 10:00:33;;;;;;;36.22;16.63;;;;;;;;;;4971770;28;20162;-66
2022/01/11 10:02:58;;;;;;;32.70;16.95;;;;;;;;;;4965079;28;20030;-67
2022/01/11 10:05:24;;;;;;;33.63;16.27;;;;;;;;;;4969434;28;20027;-67
2022/01/11 10:07:49;;;;;;;31.88;16.33;;;;;;;;;;4970644;28;20110;-66
2022/01/11 10:10:16;;;;;;;34.58;15.95;;;;;;;;;;4962056;28;20490;-67
2022/01/11 10:12:43;;;;;;;28.63;15.02;;;;;;;;;;4942188;28;20027;-66
2022/01/11 10:15:08;;;;;;;26.85;13.73;;;;;;;;;;4970888;28;20078;-66
2022/01/11 10:17:38;;;;;;;26.40;13.85;;;;;;;;;;4973657;28;20071;-66
2022/01/11 10:20:11;;;;;;;27.75;13.85;;;;;;;;;;4964685;28;20382;-67
2022/01/11 10:22:45;;;;;;;24.58;13.93;;;;;;;;;;4962798;28;20130;-66
2022/01/11 10:25:10;;;;;;;28.23;13.68;;;;;;;;;;4969388;28;20042;-66
2022/01/11 10:27:36;;;;;;;19.65;10.48;;;;;;;;;;4967104;28;20508;-66
2022/01/11 10:30:04;;;;;;;20.50;9.65;;;;;;;;;;4975822;28;20035;-66
2022/01/11 10:32:35;;;;;;;21.60;11.38;;;;;;;;;;4970830;28;20030;-65
2022/01/11 10:35:16;;;;;;;21.50;10.82;;;;;;;;;;4974214;28;20035;-66
2022/01/11 10:37:42;;;;;;;22.65;12.07;;;;;;;;;;4969145;28;20426;-66
2022/01/11 10:40:14;;;;;;;23.48;12.48;;;;;;;;;;4969237;28;20065;-67
2022/01/11 10:42:46;;;;;;;23.25;12.10;;;;;;;;;;4969338;28;20030;-66
2022/01/11 10:45:18;;;;;;;24.08;12.15;;;;;;;;;;4969517;28;20118;-66
2022/01/11 10:47:47;;;;;;;24.08;12.88;;;;;;;;;;4971221;28;20015;-66
2022/01/11 10:50:12;;;;;;;24.27;12.20;;;;;;;;;;4969998;28;20545;-66
2022/01/11 10:52:38;;;;;;;20.27;11.30;;;;;;;;;;4964115;28;20110;-67
2022/01/11 10:55:04;;;;;;;23.42;11.27;;;;;;;;;;4969942;28;20113;-67
2022/01/11 10:57:32;;;;;;;19.67;10.55;;;;;;;;;;4969697;28;20107;-68
2022/01/11 11:00:06;;;;;;;21.80;11.13;;;;;;;;;;4970889;28;20057;-66
2022/01/11 11:02:32;;;;;;;23.02;12.00;;;;;;;;;;4970409;28;20050;-66
2022/01/11 11:05:00;;;;;;;19.00;10.30;;;;;;;;;;4965690;28;20735;-65
2022/01/11 11:07:27;;;;;;;20.33;11.32;;;;;;;;;;4966481;28;20030;-67
2022/01/11 11:09:53;;;;;;;19.27;10.38;;;;;;;;;;4970794;28;20390;-67
2022/01/11 11:12:20;;;;;;;19.95;10.70;;;;;;;;;;4968633;28;20026;-66
2022/01/11 11:14:52;;;;;;;21.88;11.27;;;;;;;;;;4969646;28;20105;-66
2022/01/11 11:17:36;;;;;;;25.83;11.70;;;;;;;;;;4967805;28;20139;-66
2022/01/11 11:20:06;;;;;;;20.85;10.65;;;;;;;;;;4970150;28;20466;-67
2022/01/11 11:22:31;;;;;;;;;;;;;;;;;;4969678;28;20848;-66
2022/01/11 11:24:56;;;;;;;21.98;11.24;;;;;;;;;;4964374;28;20283;-65
2022/01/11 11:27:23;;;;;;;18.88;9.52;;;;;;;;;;4966874;28;20483;-65
2022/01/11 11:29:48;;;;;;;15.75;8.63;;;;;;;;;;4969819;28;20031;-66
2022/01/11 11:32:16;;;;;;;15.07;8.35;;;;;;;;;;4971777;28;20022;-65
2022/01/11 11:34:42;;;;;;;16.63;9.05;;;;;;;;;;4968789;28;20050;-67
2022/01/11 11:37:08;;;;;;;14.50;8.13;;;;;;;;;;4966380;28;20065;-66
2022/01/11 11:39:34;;;;;;;12.88;7.45;;;;;;;;;;4968480;28;20030;-66
2022/01/11 11:42:00;;;;;;;12.90;7.75;;;;;;;;;;4969467;28;20032;-66
2022/01/11 11:44:26;;;;;;;10.35;6.00;;;;;;;;;;4969329;28;20880;-66
2022/01/11 11:46:54;;;;;;;11.02;6.75;;;;;;;;;;4969727;28;20027;-67
2022/01/11 11:49:38;;;;;;;10.65;5.75;;;;;;;;;;4974935;28;20406;-65
2022/01/11 11:52:23;;;;;;;10.48;4.75;;;;;;;;;;4973568;28;20035;-66
2022/01/11 11:54:49;;;;;;;9.55;5.30;;;;;;;;;;4972096;28;20776;-66
2022/01/11 11:57:14;;;;;;;9.13;5.50;;;;;;;;;;4968729;28;20038;-66
2022/01/11 11:59:40;;;;;;;10.23;6.05;;;;;;;;;;4964085;28;20030;-67
2022/01/11 12:02:05;;;;;;;12.85;5.85;;;;;;;;;;4964696;28;20022;-66
2022/01/11 12:04:31;;;;;;;9.25;5.47;;;;;;;;;;4968043;28;20479;-66
2022/01/11 12:06:57;;;;;;;8.75;4.90;;;;;;;;;;4975016;28;20031;-66
2022/01/11 12:09:28;;;;;;;9.15;5.25;;;;;;;;;;4968868;28;20047;-67
2022/01/11 12:11:53;;;;;;;7.90;4.70;;;;;;;;;;4966846;28;20031;-66
2022/01/11 12:14:35;;;;;;;10.63;5.63;;;;;;;;;;4967504;28;20030;-67
2022/01/11 12:17:27;;;;;;;10.05;5.82;;;;;;;;;;4967652;28;20031;-66
2022/01/11 12:19:53;;;;;;;13.90;7.40;;;;;;;;;;4966386;28;20031;-67
2022/01/11 12:22:28;;;;;;;11.80;6.93;;;;;;;;;;4967807;28;20037;-66
2022/01/11 12:24:56;;;;;;;14.05;8.32;;;;;;;;;;4962746;28;20027;-67
2022/01/11 12:27:22;;;;;;;11.93;6.93;;;;;;;;;;4962985;28;20033;-66
2022/01/11 12:29:58;;;;;;;13.45;7.72;;;;;;;;;;4964924;28;20486;-66
2022/01/11 12:32:25;;;;;;;13.60;7.47;;;;;;;;;;4967037;28;20031;-67
2022/01/11 12:34:52;;;;;;;13.40;7.72;;;;;;;;;;4967865;28;20027;-67
2022/01/11 12:37:38;;;;;;;12.38;7.45;;;;;;;;;;4964611;28;20026;-67
2022/01/11 12:40:15;;;;;;;11.07;7.32;;;;;;;;;;4972917;28;20057;-67
2022/01/11 12:42:51;;;;;;;10.73;6.80;;;;;;;;;;4971969;28;20019;-66
2022/01/11 12:45:39;;;;;;;11.27;6.97;;;;;;;;;;4968954;28;20022;-67
2022/01/11 12:48:05;;;;;;;11.32;6.45;;;;;;;;;;4899824;29;20052;-67
2022/01/11 12:50:31;;;;;;;15.50;8.50;;;;;;;;;;4904558;29;20078;-66
2022/01/11 12:52:59;;;;;;;14.07;7.43;;;;;;;;;;4905598;29;20048;-66
2022/01/11 12:55:25;;;;;;;12.87;7.90;;;;;;;;;;4907697;29;20042;-66
2022/01/11 12:57:50;;;;;;;13.63;6.97;;;;;;;;;;4905843;29;20489;-66
2022/01/11 13:00:17;;;;;;;12.30;7.25;;;;;;;;;;4919309;29;20040;-66
2022/01/11 13:02:42;;;;;;;13.93;7.80;;;;;;;;;;4915959;29;20115;-66
2022/01/11 13:05:13;;;;;;;15.48;8.38;;;;;;;;;;4914145;29;20139;-68
2022/01/11 13:07:40;;;;;;;13.63;8.15;;;;;;;;;;4913582;29;20039;-66
2022/01/11 13:10:10;;;;;;;12.38;7.93;;;;;;;;;;4906437;29;20131;-66
2022/01/11 13:12:39;;;;;;;13.27;7.60;;;;;;;;;;4906906;29;20032;-67
2022/01/11 13:15:09;;;;;;;14.95;7.95;;;;;;;;;;4889559;29;20056;-68
2022/01/11 13:17:53;;;;;;;12.40;7.22;;;;;;;;;;4910331;29;20388;-67
2022/01/11 13:20:18;;;;;;;11.75;7.07;;;;;;;;;;4906664;29;20028;-65
2022/01/11 13:23:25;;;;;;;9.98;6.55;;;;;;;;;;4898356;29;20051;-67
2022/01/11 13:25:59;;;;;;;9.15;5.95;;;;;;;;;;4933278;29;20027;-66
2022/01/11 13:28:39;;;;;;;12.60;7.68;;;;;;;;;;4950130;29;20566;-68
2022/01/11 13:31:08;;;;;;;;;;;;;;;;;;4950324;29;20065;-66
2022/01/11 13:33:34;;;;;;;16.15;6.50;;;;;;;;;;4950086;29;19910;-67
2022/01/11 13:36:10;;;;;;;12.48;6.50;;;;;;;;;;4947915;29;20511;-66
2022/01/11 13:38:35;;;;;;;13.45;6.95;;;;;;;;;;4933904;29;20441;-67
2022/01/11 13:41:04;;;;;;;11.25;6.75;;;;;;;;;;4949412;29;20023;-67
2022/01/11 13:43:33;;;;;;;11.35;7.30;;;;;;;;;;4949862;29;20075;-67
2022/01/11 13:45:58;;;;;;;11.65;6.63;;;;;;;;;;4950306;29;20240;-67
2022/01/11 13:48:23;;;;;;;12.70;7.07;;;;;;;;;;4949725;29;20114;-66
2022/01/11 13:50:50;;;;;;;10.30;6.35;;;;;;;;;;4949083;29;20439;-66
2022/01/11 13:53:23;;;;;;;14.27;6.78;;;;;;;;;;4948280;29;20031;-66
2022/01/11 13:55:48;;;;;;;11.30;6.88;;;;;;;;;;4950241;29;20118;-67
2022/01/11 13:58:17;;;;;;;13.50;7.20;;;;;;;;;;4948565;29;20511;-66
2022/01/11 14:00:42;;;;;;;11.43;6.93;;;;;;;;;;4946326;29;20031;-66
2022/01/11 14:03:12;;;;;;;12.63;7.20;;;;;;;;;;4967472;28;20043;-67
2022/01/11 14:05:37;;;;;;;;;;;;;;;;;;4966895;28;20586;-67
2022/01/11 14:08:06;;;;;;;9.43;6.28;;;;;;;;;;4970504;28;19988;-66
2022/01/11 14:10:37;;;;;;;10.98;6.88;;;;;;;;;;4972068;28;20657;-67
2022/01/11 14:13:05;;;;;;;13.77;7.43;;;;;;;;;;4971041;28;20027;-66
2022/01/11 14:15:30;;;;;;;11.68;6.97;;;;;;;;;;4971895;28;20138;-68
2022/01/11 14:17:56;;;;;;;10.05;6.68;;;;;;;;;;4971224;28;20101;-67
2022/01/11 14:20:25;;;;;;;10.90;7.07;;;;;;;;;;4972228;28;20015;-67
2022/01/11 14:22:52;;;;;;;12.05;7.57;;;;;;;;;;4967187;28;20046;-67
2022/01/11 14:25:34;;;;;;;11.30;6.82;;;;;;;;;;4970582;28;20080;-67